Terminal Aerodrome Forecast
Issued by NWS

Home | Current Version | Previous Version | Text Only | Print | Product List | Glossary Off
Versions: 1 2 3 4 5 6 7 8 9 10 11 12

608
FTUS43 KBIS 251731
TAFMOT
TAF
KMOT 251731Z 2518/2618 13004KT P6SM SKC
     FM252200 34005KT P6SM FEW250
     FM261700 03005KT P6SM FEW250=

USA.gov is the U.S. government's official web portal to all federal, state and local government web resources and services.